createdAt,value
2022-10-01T00:00:28.519Z,5.00
2022-10-01T00:01:28.521Z,4.20
2022-10-01T00:02:28.480Z,4.20
2022-10-01T00:03:28.411Z,4.00
2022-10-01T00:04:28.380Z,4.30
2022-10-01T00:05:28.325Z,4.30
2022-10-01T00:06:28.280Z,4.30
2022-10-01T00:07:28.248Z,4.20
2022-10-01T00:08:28.202Z,5.20
2022-10-01T00:09:28.160Z,4.70
2022-10-01T00:10:28.133Z,4.40
2022-10-01T00:11:28.086Z,3.60
2022-10-01T00:12:28.040Z,5.00
2022-10-01T00:13:28.011Z,5.70
2022-10-01T00:14:27.960Z,4.80
2022-10-01T00:15:27.920Z,5.60
2022-10-01T00:16:27.947Z,4.90
2022-10-01T00:17:27.843Z,3.90
2022-10-01T00:18:27.802Z,4.50
2022-10-01T00:19:27.769Z,5.70
2022-10-01T00:20:27.720Z,4.30
2022-10-01T00:21:27.688Z,5.70
2022-10-01T00:22:27.660Z,4.70
2022-10-01T00:23:27.607Z,5.40
2022-10-01T00:24:27.561Z,4.50
2022-10-01T00:25:27.521Z,5.00
2022-10-01T00:26:27.483Z,4.30
2022-10-01T00:27:27.456Z,6.00
2022-10-01T00:28:27.496Z,4.70
2022-10-01T00:29:27.373Z,6.80
2022-10-01T00:30:27.322Z,6.20
2022-10-01T00:31:27.314Z,6.10
2022-10-01T00:32:27.243Z,5.10
2022-10-01T00:33:27.200Z,8.10
2022-10-01T00:34:27.174Z,5.40
2022-10-01T00:35:27.124Z,4.50
2022-10-01T00:36:27.078Z,5.90
2022-10-01T00:37:27.044Z,6.00
2022-10-01T00:38:27.004Z,5.90
2022-10-01T00:39:26.959Z,5.50
2022-10-01T00:40:26.930Z,5.70
2022-10-01T00:41:26.879Z,6.00
2022-10-01T00:42:26.843Z,5.60
2022-10-01T00:43:26.799Z,6.90
2022-10-01T00:44:26.757Z,5.90
2022-10-01T00:45:26.741Z,5.80
2022-10-01T00:46:26.686Z,6.70
2022-10-01T00:47:26.653Z,6.20
2022-10-01T00:48:26.592Z,6.10
2022-10-01T00:49:26.618Z,6.60
2022-10-01T00:50:26.523Z,7.90
2022-10-01T00:51:26.474Z,6.50
2022-10-01T00:52:26.431Z,6.10
2022-10-01T00:53:26.405Z,7.90
2022-10-01T00:54:26.360Z,6.60
2022-10-01T00:55:26.312Z,6.70
2022-10-01T00:56:26.268Z,6.90
2022-10-01T00:57:26.232Z,6.90
2022-10-01T00:58:26.197Z,7.10
2022-10-01T00:59:26.158Z,7.10
2022-10-01T01:00:26.118Z,6.90
2022-10-01T01:01:26.111Z,6.90
2022-10-01T01:02:26.054Z,6.80
2022-10-01T01:03:26.006Z,6.90
2022-10-01T01:04:25.942Z,7.60
2022-10-01T01:05:25.924Z,7.50
2022-10-01T01:06:25.869Z,7.40
2022-10-01T01:07:25.824Z,7.40
2022-10-01T01:08:25.780Z,7.20
2022-10-01T01:09:25.745Z,9.10
2022-10-01T01:10:25.706Z,7.70
2022-10-01T01:11:25.669Z,7.90
2022-10-01T01:12:25.631Z,8.60
2022-10-01T01:13:25.579Z,7.40
2022-10-01T01:14:25.551Z,7.90
2022-10-01T01:15:25.512Z,7.50
2022-10-01T01:16:25.453Z,7.60
2022-10-01T01:17:25.414Z,7.30
2022-10-01T01:18:25.382Z,7.60
2022-10-01T01:19:25.332Z,8.80
2022-10-01T01:20:25.304Z,7.40
2022-10-01T01:21:25.252Z,8.20
2022-10-01T01:22:25.205Z,8.90
2022-10-01T01:23:25.177Z,7.90
2022-10-01T01:24:25.151Z,8.00
2022-10-01T01:25:25.087Z,8.00
2022-10-01T01:26:25.045Z,7.90
2022-10-01T01:27:25.010Z,8.90
2022-10-01T01:28:25.016Z,8.80
2022-10-01T01:29:24.936Z,8.10
2022-10-01T01:30:24.882Z,8.40
2022-10-01T01:31:24.912Z,8.50
2022-10-01T01:32:24.803Z,10.00
2022-10-01T01:33:24.764Z,8.70
2022-10-01T01:34:24.718Z,8.80
2022-10-01T01:35:24.695Z,8.80
2022-10-01T01:36:24.649Z,8.90
2022-10-01T01:37:24.601Z,8.50
2022-10-01T01:38:24.566Z,9.30
2022-10-01T01:39:24.515Z,9.30
2022-10-01T01:40:24.473Z,10.00
2022-10-01T01:41:24.436Z,9.50
2022-10-01T01:42:24.398Z,9.00
2022-10-01T01:43:24.353Z,9.30
2022-10-01T01:44:24.314Z,9.30
2022-10-01T01:45:24.272Z,9.90
2022-10-01T01:46:24.231Z,9.90
2022-10-01T01:47:24.187Z,10.20
2022-10-01T01:48:24.154Z,10.10
2022-10-01T01:49:24.103Z,9.60
2022-10-01T01:50:24.066Z,10.60
2022-10-01T01:51:24.021Z,10.40
2022-10-01T01:52:23.985Z,10.40
2022-10-01T01:53:23.943Z,10.50
2022-10-01T01:54:23.911Z,9.70
2022-10-01T01:55:33.327Z,10.00
2022-10-01T01:56:23.819Z,10.20
2022-10-01T01:57:23.785Z,9.70
2022-10-01T01:58:23.738Z,10.40
2022-10-01T01:59:23.692Z,10.80
2022-10-01T02:00:23.666Z,10.90
2022-10-01T02:01:23.636Z,10.80
2022-10-01T02:02:23.648Z,10.50
2022-10-01T02:03:23.527Z,10.60
2022-10-01T02:04:23.488Z,10.80
2022-10-01T02:05:23.461Z,10.40
2022-10-01T02:06:23.416Z,10.90
2022-10-01T02:07:23.366Z,10.80
2022-10-01T02:08:23.326Z,10.80
2022-10-01T02:09:23.283Z,11.00
2022-10-01T02:10:23.253Z,10.70
2022-10-01T02:11:23.201Z,11.00
2022-10-01T02:12:23.159Z,10.40
2022-10-01T02:13:23.118Z,10.20
2022-10-01T02:14:23.075Z,10.50
2022-10-01T02:15:23.039Z,10.00
2022-10-01T02:16:23.022Z,10.60
2022-10-01T02:17:22.954Z,10.20
2022-10-01T02:18:22.911Z,10.50
2022-10-01T02:19:22.884Z,10.60
2022-10-01T02:20:22.831Z,10.70
2022-10-01T02:21:22.790Z,10.20
2022-10-01T02:22:22.747Z,10.90
2022-10-01T02:23:22.711Z,10.70
2022-10-01T02:24:22.672Z,10.50
2022-10-01T02:25:22.638Z,10.20
2022-10-01T02:26:22.584Z,10.60
2022-10-01T02:27:22.546Z,10.60
2022-10-01T02:28:22.553Z,11.90
2022-10-01T02:29:24.316Z,10.80
2022-10-01T02:30:23.944Z,11.40
2022-10-01T02:31:22.430Z,10.30
2022-10-01T02:32:22.339Z,11.00
2022-10-01T02:33:22.298Z,10.70
2022-10-01T02:34:22.271Z,10.80
2022-10-01T02:35:22.216Z,10.70
2022-10-01T02:36:22.293Z,10.60
2022-10-01T02:37:22.134Z,10.50
2022-10-01T02:38:23.274Z,10.30
2022-10-01T02:39:22.050Z,11.00
2022-10-01T02:40:22.012Z,10.40
2022-10-01T02:41:22.838Z,11.30
2022-10-01T02:42:21.941Z,11.10
2022-10-01T02:43:21.887Z,10.70
2022-10-01T02:44:21.847Z,10.90
2022-10-01T02:45:21.807Z,10.90
2022-10-01T02:46:21.878Z,10.90
2022-10-01T02:47:21.725Z,10.90
2022-10-01T02:48:21.692Z,10.90
2022-10-01T02:49:21.642Z,10.50
2022-10-01T02:50:21.600Z,10.70
2022-10-01T02:51:21.561Z,10.50
2022-10-01T02:52:21.525Z,10.40
2022-10-01T02:53:21.488Z,10.70
2022-10-01T02:54:21.440Z,11.40
2022-10-01T02:55:21.396Z,10.90
2022-10-01T02:56:21.355Z,11.60
2022-10-01T02:57:21.314Z,11.10
2022-10-01T02:58:21.288Z,11.20
2022-10-01T02:59:21.242Z,11.40
2022-10-01T03:00:21.201Z,11.20
2022-10-01T03:01:21.175Z,12.00
2022-10-01T03:02:21.206Z,11.40
2022-10-01T03:03:21.069Z,12.20
2022-10-01T03:04:21.042Z,12.30
2022-10-01T03:05:20.986Z,12.00
2022-10-01T03:06:20.944Z,12.80
2022-10-01T03:07:20.902Z,12.10
2022-10-01T03:08:20.863Z,12.10
2022-10-01T03:09:20.824Z,11.80
2022-10-01T03:10:20.792Z,12.30
2022-10-01T03:11:20.749Z,12.40
2022-10-01T03:12:20.705Z,12.20
2022-10-01T03:13:20.659Z,12.30
2022-10-01T03:14:20.617Z,11.90
2022-10-01T03:15:20.575Z,11.60
2022-10-01T03:16:20.747Z,11.80
2022-10-01T03:17:20.492Z,11.80
2022-10-01T03:18:20.458Z,12.60
2022-10-01T03:19:20.410Z,12.20
2022-10-01T03:20:20.371Z,12.50
2022-10-01T03:21:20.329Z,12.40
2022-10-01T03:22:20.302Z,12.40
2022-10-01T03:23:20.248Z,12.60
2022-10-01T03:24:20.207Z,12.40
2022-10-01T03:25:20.170Z,13.00
2022-10-01T03:26:20.127Z,12.50
2022-10-01T03:27:20.085Z,12.80
2022-10-01T03:28:20.129Z,12.80
2022-10-01T03:29:20.010Z,12.40
2022-10-01T03:30:19.970Z,12.60
2022-10-01T03:31:19.987Z,12.10
2022-10-01T03:32:19.995Z,12.30
2022-10-01T03:33:19.834Z,12.10
2022-10-01T03:34:19.811Z,12.10
2022-10-01T03:35:20.358Z,12.80
2022-10-01T03:36:19.790Z,12.30
2022-10-01T03:37:19.674Z,13.40
2022-10-01T03:38:20.358Z,13.10
2022-10-01T03:39:19.595Z,13.40
2022-10-01T03:40:19.574Z,13.60
2022-10-01T03:41:19.510Z,13.40
2022-10-01T03:42:20.421Z,14.30
2022-10-01T03:43:19.442Z,13.30
2022-10-01T03:44:19.385Z,13.50
2022-10-01T03:45:19.409Z,13.10
2022-10-01T03:46:19.310Z,14.70
2022-10-01T03:47:19.264Z,13.40
2022-10-01T03:48:19.324Z,13.80
2022-10-01T03:49:19.430Z,14.30
2022-10-01T03:50:19.230Z,13.10
2022-10-01T03:51:20.047Z,14.20
2022-10-01T03:52:19.083Z,14.50
2022-10-01T03:53:19.024Z,15.00
2022-10-01T03:54:18.976Z,14.60
2022-10-01T03:55:18.941Z,15.20
2022-10-01T03:56:18.896Z,15.50
2022-10-01T03:57:18.853Z,15.60
2022-10-01T03:58:18.830Z,15.90
2022-10-01T03:59:18.788Z,15.10
2022-10-01T04:00:18.730Z,15.60
2022-10-01T04:01:18.754Z,15.70
2022-10-01T04:02:18.764Z,15.60
2022-10-01T04:03:18.610Z,15.90
2022-10-01T04:04:18.577Z,14.80
2022-10-01T04:05:18.537Z,15.10
2022-10-01T04:06:18.486Z,15.10
2022-10-01T04:07:18.449Z,14.60
2022-10-01T04:08:23.457Z,14.90
2022-10-01T04:09:18.364Z,14.60
2022-10-01T04:10:19.160Z,14.60
2022-10-01T04:11:18.284Z,14.10
2022-10-01T04:12:18.250Z,15.00
2022-10-01T04:13:18.200Z,13.60
2022-10-01T04:14:18.158Z,13.80
2022-10-01T04:15:18.118Z,13.20
2022-10-01T04:16:18.113Z,13.00
2022-10-01T04:17:18.047Z,12.30
2022-10-01T04:18:17.992Z,12.60
2022-10-01T04:19:17.951Z,13.20
2022-10-01T04:20:17.915Z,12.80
2022-10-01T04:21:17.874Z,12.60
2022-10-01T04:22:17.830Z,12.00
2022-10-01T04:23:17.801Z,12.40
2022-10-01T04:24:17.752Z,11.80
2022-10-01T04:25:17.707Z,11.80
2022-10-01T04:26:17.669Z,11.10
2022-10-01T04:27:17.626Z,10.20
2022-10-01T04:28:17.633Z,10.70
2022-10-01T04:29:17.557Z,11.30
2022-10-01T04:30:17.503Z,10.10
2022-10-01T04:31:17.582Z,10.00
2022-10-01T04:32:17.423Z,9.60
2022-10-01T04:33:17.380Z,9.50
2022-10-01T04:34:17.339Z,9.70
2022-10-01T04:35:17.311Z,8.70
2022-10-01T04:36:17.258Z,8.10
2022-10-01T04:37:17.216Z,7.80
2022-10-01T04:38:17.173Z,8.10
2022-10-01T04:39:17.133Z,8.20
2022-10-01T04:40:17.097Z,8.00
2022-10-01T04:41:17.063Z,7.90
2022-10-01T04:42:17.015Z,7.70
2022-10-01T04:43:16.970Z,7.40
2022-10-01T04:44:16.933Z,7.80
2022-10-01T04:45:16.890Z,8.10
2022-10-01T04:46:16.898Z,7.60
2022-10-01T04:47:16.820Z,7.30
2022-10-01T04:48:16.770Z,7.40
2022-10-01T04:49:16.728Z,7.00
2022-10-01T04:50:16.686Z,7.10
2022-10-01T04:51:16.660Z,6.60
2022-10-01T04:52:16.606Z,7.30
2022-10-01T04:53:16.563Z,7.40
2022-10-01T04:54:16.539Z,7.30
2022-10-01T04:55:16.485Z,6.90
2022-10-01T04:56:17.312Z,7.10
2022-10-01T04:57:16.400Z,6.80
2022-10-01T04:58:16.361Z,7.00
2022-10-01T04:59:16.328Z,7.10
2022-10-01T05:00:16.279Z,6.80
2022-10-01T05:01:16.389Z,6.90
2022-10-01T05:02:16.226Z,6.30
2022-10-01T05:03:16.156Z,6.30
2022-10-01T05:04:16.117Z,7.00
2022-10-01T05:05:16.086Z,6.40
2022-10-01T05:06:16.033Z,6.10
2022-10-01T05:07:15.992Z,5.50
2022-10-01T05:08:15.955Z,5.70
2022-10-01T05:09:15.911Z,6.50
2022-10-01T05:10:15.881Z,5.30
2022-10-01T05:11:15.840Z,5.10
2022-10-01T05:12:15.790Z,4.90
2022-10-01T05:13:15.749Z,4.40
2022-10-01T05:14:15.712Z,4.10
2022-10-01T05:15:15.668Z,4.10
2022-10-01T05:16:15.687Z,4.10
2022-10-01T05:17:15.601Z,4.20
2022-10-01T05:18:15.545Z,4.40
2022-10-01T05:19:15.504Z,3.50
2022-10-01T05:20:15.469Z,3.80
2022-10-01T05:21:15.423Z,3.80
2022-10-01T05:22:15.383Z,3.50
2022-10-01T05:23:15.354Z,3.40
2022-10-01T05:24:15.303Z,2.90
2022-10-01T05:25:15.260Z,3.60
2022-10-01T05:26:15.217Z,2.60
2022-10-01T05:27:15.179Z,2.90
2022-10-01T05:28:18.379Z,3.10
2022-10-01T05:29:15.109Z,3.40
2022-10-01T05:30:15.060Z,2.50
2022-10-01T05:31:15.071Z,3.00
2022-10-01T05:32:14.977Z,2.70
2022-10-01T05:33:14.945Z,3.40
2022-10-01T05:34:14.892Z,2.80
2022-10-01T05:35:14.867Z,2.50
2022-10-01T05:36:14.813Z,3.00
2022-10-01T05:37:14.794Z,3.00
2022-10-01T05:38:14.731Z,2.80
2022-10-01T05:39:14.689Z,2.40
2022-10-01T05:40:14.649Z,3.10
2022-10-01T05:41:14.609Z,2.40
2022-10-01T05:42:14.568Z,2.50
2022-10-01T05:43:14.541Z,2.40
2022-10-01T05:44:14.498Z,2.50
2022-10-01T05:45:14.446Z,2.00
2022-10-01T05:46:14.452Z,1.70
2022-10-01T05:47:14.362Z,2.00
2022-10-01T05:48:14.323Z,2.40
2022-10-01T05:49:14.284Z,2.30
2022-10-01T05:50:14.255Z,2.30
2022-10-01T05:51:14.206Z,2.00
2022-10-01T05:52:14.164Z,1.90
2022-10-01T05:53:14.137Z,1.90
2022-10-01T05:54:14.080Z,2.20
2022-10-01T05:55:14.039Z,2.10
2022-10-01T05:56:14.009Z,2.10
2022-10-01T05:57:13.957Z,2.50
2022-10-01T05:58:14.052Z,2.00
2022-10-01T05:59:13.875Z,2.20
2022-10-01T06:00:13.841Z,1.80
2022-10-01T06:01:13.820Z,2.10
2022-10-01T06:02:13.840Z,2.80
2022-10-01T06:03:13.808Z,1.50
2022-10-01T06:04:13.674Z,1.40
2022-10-01T06:05:13.633Z,1.60
2022-10-01T06:06:13.600Z,1.50
2022-10-01T06:07:13.568Z,1.40
2022-10-01T06:08:13.512Z,1.60
2022-10-01T06:09:13.567Z,1.50
2022-10-01T06:10:13.432Z,1.80
2022-10-01T06:11:13.388Z,1.70
2022-10-01T06:12:17.654Z,1.60
2022-10-01T06:13:13.321Z,1.50
2022-10-01T06:14:13.272Z,1.60
2022-10-01T06:15:13.227Z,1.80
2022-10-01T06:16:13.206Z,1.40
2022-10-01T06:17:13.145Z,1.50
2022-10-01T06:18:13.119Z,1.90
2022-10-01T06:19:13.067Z,1.50
2022-10-01T06:20:13.026Z,1.60
2022-10-01T06:21:12.983Z,2.10
2022-10-01T06:22:12.945Z,2.50
2022-10-01T06:23:12.904Z,2.10
2022-10-01T06:24:12.879Z,1.40
2022-10-01T06:25:12.835Z,1.70
2022-10-01T06:26:12.785Z,1.70
2022-10-01T06:27:12.741Z,3.20
2022-10-01T06:28:12.732Z,2.80
2022-10-01T06:29:12.661Z,2.30
2022-10-01T06:30:13.643Z,1.80
2022-10-01T06:31:12.674Z,1.90
2022-10-01T06:32:12.543Z,2.30
2022-10-01T06:33:12.500Z,1.70
2022-10-01T06:34:12.456Z,1.70
2022-10-01T06:35:12.418Z,1.50
2022-10-01T06:36:12.397Z,1.60
2022-10-01T06:37:12.339Z,1.60
2022-10-01T06:38:12.300Z,1.90
2022-10-01T06:39:12.304Z,1.70
2022-10-01T06:40:12.213Z,1.70
2022-10-01T06:41:12.176Z,2.00
2022-10-01T06:42:12.149Z,1.60
2022-10-01T06:43:12.129Z,1.70
2022-10-01T06:44:12.055Z,2.40
2022-10-01T06:45:12.015Z,2.80
2022-10-01T06:46:12.096Z,2.70
2022-10-01T06:47:11.940Z,2.40
2022-10-01T06:48:11.907Z,2.20
2022-10-01T06:49:11.855Z,2.30
2022-10-01T06:50:11.815Z,2.00
2022-10-01T06:51:11.777Z,2.10
2022-10-01T06:52:11.732Z,11.10
2022-10-01T06:53:11.697Z,2.00
2022-10-01T06:54:11.663Z,2.00
2022-10-01T06:55:16.338Z,2.10
2022-10-01T06:56:11.573Z,2.60
2022-10-01T06:57:11.533Z,1.80
2022-10-01T06:58:11.494Z,2.50
2022-10-01T06:59:11.470Z,2.20
2022-10-01T07:00:11.411Z,3.70
2022-10-01T07:01:11.456Z,1.70
2022-10-01T07:02:11.360Z,1.80
2022-10-01T07:03:11.292Z,1.70
2022-10-01T07:04:11.250Z,1.70
2022-10-01T07:05:11.224Z,1.90
2022-10-01T07:06:11.172Z,1.40
2022-10-01T07:07:11.131Z,2.00
2022-10-01T07:08:11.094Z,1.40
2022-10-01T07:09:11.057Z,1.50
2022-10-01T07:10:11.012Z,1.60
2022-10-01T07:11:10.986Z,1.40
2022-10-01T07:12:10.933Z,1.90
2022-10-01T07:13:10.891Z,1.90
2022-10-01T07:14:10.858Z,1.50
2022-10-01T07:15:10.810Z,1.20
2022-10-01T07:16:10.811Z,1.60
2022-10-01T07:17:10.742Z,2.40
2022-10-01T07:18:10.690Z,2.30
2022-10-01T07:19:10.658Z,1.90
2022-10-01T07:20:10.612Z,1.30
2022-10-01T07:21:10.579Z,2.00
2022-10-01T07:22:10.543Z,1.20
2022-10-01T07:23:10.505Z,1.80
2022-10-01T07:24:10.452Z,1.40
2022-10-01T07:25:10.414Z,1.30
2022-10-01T07:26:10.377Z,1.20
2022-10-01T07:27:10.334Z,1.90
2022-10-01T07:28:10.327Z,1.40
2022-10-01T07:29:10.255Z,1.20
2022-10-01T07:30:10.214Z,1.50
2022-10-01T07:31:10.174Z,1.50
2022-10-01T07:32:10.153Z,2.00
2022-10-01T07:33:10.095Z,1.70
2022-10-01T07:34:10.068Z,1.30
2022-10-01T07:35:10.016Z,1.60
2022-10-01T07:36:09.977Z,1.20
2022-10-01T07:37:09.934Z,1.50
2022-10-01T07:38:09.898Z,1.40
2022-10-01T07:39:09.858Z,1.20
2022-10-01T07:40:09.828Z,2.00
2022-10-01T07:41:09.778Z,1.20
2022-10-01T07:42:09.738Z,2.00
2022-10-01T07:43:09.699Z,1.10
2022-10-01T07:44:09.660Z,2.10
2022-10-01T07:45:09.621Z,2.80
2022-10-01T07:46:09.610Z,1.10
2022-10-01T07:47:09.551Z,1.90
2022-10-01T07:48:09.503Z,1.40
2022-10-01T07:49:09.462Z,1.40
2022-10-01T07:50:09.422Z,1.40
2022-10-01T07:51:09.384Z,1.70
2022-10-01T07:52:13.134Z,2.20
2022-10-01T07:53:09.315Z,1.30
2022-10-01T07:54:09.262Z,1.20
2022-10-01T07:55:09.224Z,1.50
2022-10-01T07:56:17.447Z,3.00
2022-10-01T07:57:09.152Z,1.50
2022-10-01T07:58:09.108Z,2.40
2022-10-01T07:59:09.076Z,1.80
2022-10-01T08:00:09.024Z,1.80
2022-10-01T08:01:09.035Z,3.10
2022-10-01T08:02:08.981Z,2.30
2022-10-01T08:03:08.923Z,2.50
2022-10-01T08:04:08.866Z,1.60
2022-10-01T08:05:08.836Z,1.70
2022-10-01T08:06:08.796Z,1.50
2022-10-01T08:07:08.748Z,1.70
2022-10-01T08:08:08.770Z,1.60
2022-10-01T08:09:08.672Z,2.90
2022-10-01T08:10:08.655Z,1.80
2022-10-01T08:11:08.591Z,1.30
2022-10-01T08:12:08.554Z,2.90
2022-10-01T08:13:08.514Z,3.10
2022-10-01T08:14:08.479Z,1.50
2022-10-01T08:15:08.447Z,2.10
2022-10-01T08:16:08.447Z,2.30
2022-10-01T08:17:08.359Z,1.70
2022-10-01T08:18:08.347Z,2.10
2022-10-01T08:19:08.280Z,2.40
2022-10-01T08:20:08.241Z,3.00
2022-10-01T08:21:08.218Z,3.00
2022-10-01T08:22:08.179Z,2.60
2022-10-01T08:23:08.133Z,3.00
2022-10-01T08:24:08.100Z,1.90
2022-10-01T08:25:08.048Z,1.30
2022-10-01T08:26:08.010Z,2.60
2022-10-01T08:27:07.989Z,2.40
2022-10-01T08:28:07.984Z,2.30
2022-10-01T08:29:07.896Z,1.80
2022-10-01T08:30:07.859Z,2.10
2022-10-01T08:31:07.825Z,3.40
2022-10-01T08:32:07.820Z,3.60
2022-10-01T08:33:07.748Z,2.80
2022-10-01T08:34:07.701Z,3.30
2022-10-01T08:35:07.663Z,2.30
2022-10-01T08:36:07.730Z,3.90
2022-10-01T08:37:07.585Z,3.30
2022-10-01T08:38:07.577Z,4.60
2022-10-01T08:39:07.528Z,2.80
2022-10-01T08:40:07.499Z,1.90
2022-10-01T08:41:07.436Z,2.40
2022-10-01T08:42:07.415Z,3.20
2022-10-01T08:43:07.361Z,2.20
2022-10-01T08:44:07.313Z,2.50
2022-10-01T08:45:07.291Z,2.60
2022-10-01T08:46:07.269Z,3.20
2022-10-01T08:47:07.202Z,3.90
2022-10-01T08:48:07.160Z,2.10
2022-10-01T08:49:07.121Z,2.10
2022-10-01T08:50:07.082Z,3.70
2022-10-01T08:51:07.054Z,2.70
2022-10-01T08:52:07.003Z,2.60
2022-10-01T08:53:06.973Z,1.70
2022-10-01T08:54:06.930Z,2.10
2022-10-01T08:55:06.888Z,2.70
2022-10-01T08:56:06.849Z,1.60
2022-10-01T08:57:06.821Z,2.50
2022-10-01T08:58:06.771Z,2.50
2022-10-01T08:59:06.737Z,3.10
2022-10-01T09:00:06.697Z,2.10
2022-10-01T09:01:06.741Z,2.10
2022-10-01T09:02:06.625Z,3.20
2022-10-01T09:03:06.592Z,1.80
2022-10-01T09:04:06.573Z,2.70
2022-10-01T09:05:06.508Z,2.90
2022-10-01T09:06:06.467Z,2.70
2022-10-01T09:07:06.440Z,3.40
2022-10-01T09:08:06.385Z,3.00
2022-10-01T09:09:06.351Z,2.50
2022-10-01T09:10:06.309Z,1.80
2022-10-01T09:11:06.273Z,3.90
2022-10-01T09:12:06.246Z,2.50
2022-10-01T09:13:06.216Z,2.70
2022-10-01T09:14:06.157Z,3.70
2022-10-01T09:15:06.128Z,2.90
2022-10-01T09:16:06.114Z,2.50
2022-10-01T09:17:06.047Z,2.70
2022-10-01T09:18:06.001Z,3.50
2022-10-01T09:19:05.974Z,2.80
2022-10-01T09:20:05.927Z,2.90
2022-10-01T09:21:05.887Z,3.70
2022-10-01T09:22:05.847Z,3.50
2022-10-01T09:23:05.812Z,2.80
2022-10-01T09:24:05.778Z,2.80
2022-10-01T09:25:05.762Z,1.60
2022-10-01T09:26:05.697Z,3.30
2022-10-01T09:27:05.657Z,4.10
2022-10-01T09:28:05.686Z,3.20
2022-10-01T09:29:05.583Z,3.90
2022-10-01T09:30:05.546Z,3.80
2022-10-01T09:31:05.516Z,3.90
2022-10-01T09:32:05.517Z,3.10
2022-10-01T09:33:05.430Z,3.50
2022-10-01T09:34:05.393Z,2.90
2022-10-01T09:35:05.350Z,3.40
2022-10-01T09:36:05.328Z,4.60
2022-10-01T09:37:05.273Z,5.40
2022-10-01T09:38:05.230Z,3.30
2022-10-01T09:39:05.207Z,3.10
2022-10-01T09:40:05.170Z,4.00
2022-10-01T09:41:05.164Z,4.70
2022-10-01T09:51:41.286Z,4.90
2022-10-01T09:52:40.796Z,3.60
2022-10-01T09:53:40.757Z,4.10
2022-10-01T09:54:40.710Z,3.40
2022-10-01T09:55:40.668Z,3.30
2022-10-01T09:56:40.681Z,3.60
2022-10-01T09:57:40.594Z,3.80
2022-10-01T09:58:40.552Z,3.30
2022-10-01T09:59:40.523Z,3.10
2022-10-01T10:00:41.180Z,2.30
2022-10-01T10:01:40.457Z,2.90
2022-10-01T10:02:44.638Z,3.20
2022-10-01T10:03:40.430Z,3.10
2022-10-01T10:04:40.320Z,2.90
2022-10-01T10:07:55.825Z,2.80
2022-10-01T10:08:55.749Z,3.30
2022-10-01T10:09:55.708Z,3.00
2022-10-01T10:14:10.464Z,2.60
2022-10-01T10:15:10.412Z,3.10
2022-10-01T10:16:10.406Z,2.70
2022-10-01T10:17:10.349Z,3.80
2022-10-01T10:18:10.301Z,2.60
2022-10-01T10:19:10.362Z,3.20
2022-10-01T10:20:10.223Z,3.20
2022-10-01T10:21:10.184Z,3.00
2022-10-01T10:22:10.156Z,3.20
2022-10-01T10:23:10.122Z,7.00
2022-10-01T10:24:10.071Z,3.50
2022-10-01T10:25:10.098Z,8.80
2022-10-01T10:26:09.994Z,3.00
2022-10-01T10:27:09.957Z,3.30
2022-10-01T10:28:10.004Z,7.70
2022-10-01T10:49:37.815Z,3.70
2022-10-01T10:50:37.771Z,5.70
2022-10-01T11:02:33.127Z,6.40
2022-10-01T11:06:50.379Z,6.70
2022-10-01T11:11:57.047Z,6.80
2022-10-01T11:12:57.020Z,7.40
2022-10-01T11:13:56.955Z,6.80
2022-10-01T11:14:56.937Z,7.70
2022-10-01T11:15:56.956Z,4.60
2022-10-01T11:16:56.851Z,7.10
2022-10-01T11:17:56.819Z,4.90
2022-10-01T11:18:56.783Z,6.90
2022-10-01T11:19:56.756Z,5.00
2022-10-01T11:20:56.742Z,6.50
2022-10-01T11:21:56.692Z,16.20
2022-10-01T11:22:56.650Z,7.90
2022-10-01T11:23:56.609Z,8.60
2022-10-01T11:24:56.574Z,7.00
2022-10-01T11:25:56.546Z,7.60
2022-10-01T11:26:56.506Z,7.80
2022-10-01T11:27:56.545Z,6.70
2022-10-01T11:31:11.111Z,8.20
2022-10-01T11:33:53.906Z,8.30
2022-10-01T11:34:53.849Z,8.60
2022-10-01T11:35:53.838Z,8.00
2022-10-01T11:36:55.579Z,6.50
2022-10-01T11:37:53.749Z,6.80
2022-10-01T11:38:53.761Z,7.70
2022-10-01T11:40:01.711Z,5.60
2022-10-01T11:40:53.635Z,5.10
2022-10-01T11:41:53.600Z,4.60
2022-10-01T11:42:53.571Z,6.80
2022-10-01T11:43:53.532Z,7.40
2022-10-01T11:44:56.332Z,5.80
2022-10-01T11:50:15.028Z,5.60
2022-10-01T11:51:14.980Z,6.70
2022-10-01T11:54:14.669Z,6.10
2022-10-01T11:55:14.536Z,6.50
2022-10-01T11:58:23.466Z,6.70
2022-10-01T11:59:23.429Z,6.00
2022-10-01T12:00:27.221Z,6.30
2022-10-01T12:01:23.370Z,5.40
2022-10-01T12:05:41.232Z,6.70
2022-10-01T12:09:34.572Z,7.40
2022-10-01T12:17:46.689Z,5.40
2022-10-01T12:18:46.681Z,6.70
2022-10-01T12:19:46.613Z,6.70
2022-10-01T12:20:46.571Z,6.30
2022-10-01T12:21:46.533Z,6.80
2022-10-01T12:22:46.508Z,7.30
2022-10-01T12:23:46.469Z,4.90
2022-10-01T12:24:47.374Z,8.20
2022-10-01T12:25:46.395Z,7.30
2022-10-01T12:26:46.359Z,5.70
2022-10-01T12:27:46.373Z,8.40
2022-10-01T12:28:51.526Z,8.00
2022-10-01T12:29:46.292Z,6.60
2022-10-01T12:30:46.236Z,11.20
2022-10-01T12:31:46.230Z,7.40
2022-10-01T12:32:46.153Z,7.80
2022-10-01T12:33:46.121Z,6.30
2022-10-01T12:34:49.357Z,8.20
2022-10-01T12:35:46.067Z,6.40
2022-10-01T12:36:46.020Z,7.50
2022-10-01T12:37:45.986Z,8.00
2022-10-01T12:38:45.950Z,9.00
2022-10-01T12:39:45.934Z,7.20
2022-10-01T12:40:45.967Z,8.40
2022-10-01T12:41:45.874Z,7.30
2022-10-01T12:42:45.809Z,7.00
2022-10-01T12:43:45.791Z,8.50
2022-10-01T12:44:45.745Z,8.80
2022-10-01T12:45:45.721Z,9.00
2022-10-01T12:46:45.709Z,8.90
2022-10-01T12:47:45.648Z,8.90
2022-10-01T12:48:45.593Z,7.70
2022-10-01T12:49:45.562Z,9.50
2022-10-01T12:50:45.526Z,8.70
2022-10-01T12:51:45.493Z,10.80
2022-10-01T12:52:45.449Z,8.90
2022-10-01T12:53:45.425Z,7.30
2022-10-01T12:54:45.378Z,9.20
2022-10-01T12:55:45.341Z,7.10
2022-10-01T12:56:45.311Z,6.90
2022-10-01T12:57:45.266Z,7.60
2022-10-01T12:58:45.237Z,8.80
2022-10-01T12:59:45.232Z,7.20
2022-10-01T13:00:45.197Z,5.20
2022-10-01T13:01:45.145Z,5.30
2022-10-01T13:02:45.088Z,7.80
2022-10-01T13:03:45.058Z,7.00
2022-10-01T13:04:45.004Z,5.60
2022-10-01T13:05:44.967Z,13.50
2022-10-01T13:06:44.929Z,17.10
2022-10-01T13:07:44.893Z,9.70
2022-10-01T13:08:44.857Z,4.90
2022-10-01T13:09:48.820Z,9.00
2022-10-01T13:10:44.779Z,8.90
2022-10-01T13:11:44.740Z,9.40
2022-10-01T13:12:44.703Z,6.90
2022-10-01T13:13:44.667Z,8.40
2022-10-01T13:14:44.626Z,6.70
2022-10-01T13:15:44.697Z,8.90
2022-10-01T13:16:44.650Z,8.50
2022-10-01T13:17:44.514Z,7.10
2022-10-01T13:18:44.479Z,8.60
2022-10-01T13:19:44.439Z,10.50
2022-10-01T13:20:44.399Z,8.10
2022-10-01T13:21:44.372Z,7.60
2022-10-01T13:22:44.335Z,8.60
2022-10-01T13:23:44.288Z,9.10
2022-10-01T13:24:44.249Z,8.40
2022-10-01T13:25:44.214Z,7.60
2022-10-01T13:26:44.175Z,10.30
2022-10-01T13:27:44.200Z,9.60
2022-10-01T13:28:44.107Z,9.90
2022-10-01T13:29:44.061Z,8.30
2022-10-01T13:30:44.023Z,10.10
2022-10-01T13:31:44.058Z,56.70
2022-10-01T13:32:43.946Z,64.10
2022-10-01T13:33:43.919Z,14.60
2022-10-01T13:34:43.870Z,15.10
2022-10-01T13:35:43.842Z,11.80
2022-10-01T13:36:43.800Z,10.40
2022-10-01T13:37:43.758Z,10.00
2022-10-01T13:38:43.727Z,8.90
2022-10-01T13:39:43.684Z,9.10
2022-10-01T13:40:43.646Z,9.60
2022-10-01T13:41:43.607Z,11.20
2022-10-01T13:42:43.571Z,7.90
2022-10-01T13:43:43.544Z,9.80
2022-10-01T13:44:43.507Z,9.90
2022-10-01T13:45:43.466Z,8.30
2022-10-01T13:46:43.503Z,8.60
2022-10-01T13:47:43.399Z,10.00
2022-10-01T13:48:43.348Z,12.50
2022-10-01T13:49:43.347Z,11.30
2022-10-01T13:50:43.268Z,7.30
2022-10-01T13:51:43.232Z,8.20
2022-10-01T13:52:43.199Z,10.00
2022-10-01T13:53:43.156Z,8.50
2022-10-01T13:54:43.116Z,8.30
2022-10-01T13:55:43.092Z,8.10
2022-10-01T13:56:50.925Z,12.00
2022-10-01T13:57:43.005Z,9.10
2022-10-01T13:58:42.970Z,8.90
2022-10-01T13:59:42.929Z,11.20
2022-10-01T14:00:42.904Z,11.40
2022-10-01T14:01:42.906Z,11.70
2022-10-01T14:02:42.867Z,10.50
2022-10-01T14:03:42.778Z,7.90
2022-10-01T14:04:42.738Z,9.10
2022-10-01T14:05:42.702Z,8.40
2022-10-01T14:06:42.677Z,11.10
2022-10-01T14:07:42.627Z,9.70
2022-10-01T14:08:42.588Z,8.20
2022-10-01T14:09:42.550Z,9.80
2022-10-01T14:10:42.511Z,9.80
2022-10-01T14:11:42.472Z,11.50
2022-10-01T14:12:42.445Z,10.70
2022-10-01T14:13:42.405Z,10.60
2022-10-01T14:14:42.363Z,11.00
2022-10-01T14:15:42.416Z,12.00
2022-10-01T14:16:42.279Z,11.50
2022-10-01T14:17:42.242Z,11.50
2022-10-01T14:18:42.216Z,12.60
2022-10-01T14:19:42.171Z,12.10
2022-10-01T14:20:45.412Z,10.20
2022-10-01T14:21:42.091Z,10.70
2022-10-01T14:22:42.050Z,12.60
2022-10-01T14:23:42.012Z,10.80
2022-10-01T14:24:41.983Z,13.20
2022-10-01T14:25:41.937Z,10.30
2022-10-01T14:26:41.898Z,10.20
2022-10-01T14:27:41.862Z,9.80
2022-10-01T14:28:41.820Z,10.70
2022-10-01T14:29:41.785Z,8.90
2022-10-01T14:30:41.760Z,11.90